createdAt,value
2017-04-11T00:00:48.102Z,47.90
2017-04-11T00:01:47.212Z,47.80
2017-04-11T00:02:46.319Z,48.10
2017-04-11T00:03:45.414Z,47.90
2017-04-11T00:04:44.497Z,47.70
2017-04-11T00:05:43.611Z,47.90
2017-04-11T00:06:42.726Z,47.90
2017-04-11T00:07:41.813Z,48.00
2017-04-11T00:08:40.912Z,48.50
2017-04-11T00:09:40.000Z,47.90
2017-04-11T00:10:39.101Z,47.90
2017-04-11T00:11:38.200Z,47.60
2017-04-11T00:12:37.319Z,47.60
2017-04-11T00:13:37.152Z,47.50
2017-04-11T00:14:36.244Z,47.60
2017-04-11T00:15:35.333Z,47.40
2017-04-11T00:16:34.424Z,47.40
2017-04-11T00:17:33.611Z,47.60
2017-04-11T00:18:32.691Z,47.50
2017-04-11T00:19:31.851Z,47.60
2017-04-11T00:20:30.936Z,47.60
2017-04-11T00:21:30.199Z,47.80
2017-04-11T00:22:29.303Z,47.80
2017-04-11T00:23:28.396Z,47.60
2017-04-11T00:24:27.480Z,47.70
2017-04-11T00:25:26.563Z,47.60
2017-04-11T00:26:25.643Z,47.70
2017-04-11T00:27:24.747Z,47.70
2017-04-11T00:28:23.846Z,47.70
2017-04-11T00:29:22.928Z,47.70
2017-04-11T00:30:22.010Z,47.70
2017-04-11T00:31:21.092Z,47.70
2017-04-11T00:32:20.180Z,47.80
2017-04-11T00:33:19.284Z,47.80
2017-04-11T00:34:18.364Z,47.80
2017-04-11T00:35:17.447Z,47.80
2017-04-11T00:36:16.530Z,48.00
2017-04-11T00:37:15.608Z,47.90
2017-04-11T00:38:14.708Z,48.10
2017-04-11T00:39:13.796Z,48.00
2017-04-11T00:40:12.885Z,48.00
2017-04-11T00:41:11.973Z,48.00
2017-04-11T00:42:11.068Z,47.90
2017-04-11T00:43:13.132Z,48.10
2017-04-11T00:44:12.212Z,47.90
2017-04-11T00:45:11.333Z,47.90
2017-04-11T00:46:10.451Z,48.60
2017-04-11T00:47:10.005Z,48.10
2017-04-11T00:48:09.901Z,48.00
2017-04-11T00:49:09.801Z,48.80
2017-04-11T00:50:08.904Z,48.20
2017-04-11T00:51:08.740Z,48.10
2017-04-11T00:52:07.835Z,48.00
2017-04-11T00:53:06.967Z,48.20
2017-04-11T00:54:06.803Z,48.20
2017-04-11T00:55:05.930Z,48.20
2017-04-11T00:56:05.026Z,48.30
2017-04-11T00:57:04.185Z,48.20
2017-04-11T00:58:03.284Z,48.10
2017-04-11T00:59:02.404Z,48.40
2017-04-11T01:00:02.248Z,48.30
2017-04-11T01:01:01.350Z,48.30
2017-04-11T01:02:00.465Z,48.30
2017-04-11T01:02:59.584Z,48.30
2017-04-11T01:03:58.701Z,48.30
2017-04-11T01:04:57.804Z,48.40
2017-04-11T01:05:56.891Z,48.30
2017-04-11T01:06:56.001Z,48.30
2017-04-11T01:07:55.843Z,48.20
2017-04-11T01:08:54.936Z,47.90
2017-04-11T01:09:54.099Z,47.90
2017-04-11T01:10:53.200Z,47.90
2017-04-11T01:11:52.372Z,48.00
2017-04-11T01:12:51.476Z,47.90
2017-04-11T01:13:50.625Z,47.90
2017-04-11T01:14:50.531Z,48.10
2017-04-11T01:15:49.621Z,48.00
2017-04-11T01:16:48.736Z,48.10
2017-04-11T01:17:47.828Z,48.20
2017-04-11T01:18:46.916Z,48.20
2017-04-11T01:19:46.065Z,48.20
2017-04-11T01:20:45.167Z,48.20
2017-04-11T01:21:44.308Z,48.10
2017-04-11T01:22:43.401Z,48.10
2017-04-11T01:23:42.557Z,48.30
2017-04-11T01:24:41.650Z,48.20
2017-04-11T01:25:40.815Z,48.30
2017-04-11T01:26:39.911Z,48.40
2017-04-11T01:27:39.008Z,48.50
2017-04-11T01:28:38.108Z,48.30
2017-04-11T01:29:37.196Z,48.30
2017-04-11T01:30:36.313Z,48.30
2017-04-11T01:31:35.416Z,48.20
2017-04-11T01:32:34.848Z,48.20
2017-04-11T01:33:33.984Z,48.40
2017-04-11T01:34:33.216Z,48.30
2017-04-11T01:35:32.330Z,48.20
2017-04-11T01:36:31.424Z,48.30
2017-04-11T01:37:31.300Z,48.50
2017-04-11T01:39:29.792Z,48.40
2017-04-11T01:40:28.912Z,48.60
2017-04-11T01:41:28.017Z,48.70
2017-04-11T01:42:27.120Z,48.60
2017-04-11T01:43:26.211Z,48.50
2017-04-11T01:44:25.327Z,48.70
2017-04-11T01:45:25.241Z,48.70
2017-04-11T01:46:24.384Z,48.70
2017-04-11T01:47:23.498Z,48.60
2017-04-11T01:48:22.620Z,48.70
2017-04-11T01:49:21.741Z,48.70
2017-04-11T01:50:20.841Z,48.40
2017-04-11T01:51:20.073Z,48.50
2017-04-11T01:52:19.198Z,48.60
2017-04-11T01:53:18.324Z,48.60
2017-04-11T01:54:18.177Z,48.60
2017-04-11T01:55:17.283Z,48.40
2017-04-11T01:56:16.416Z,48.50
2017-04-11T01:57:15.523Z,48.90
2017-04-11T01:58:14.631Z,48.70
2017-04-11T01:59:13.752Z,48.50
2017-04-11T02:00:13.620Z,48.50
2017-04-11T02:01:12.748Z,48.60
2017-04-11T02:02:12.741Z,48.70
2017-04-11T02:03:11.851Z,48.70
2017-04-11T02:04:10.961Z,48.70
2017-04-11T02:05:10.072Z,48.80
2017-04-11T02:06:09.168Z,48.80
2017-04-11T02:07:08.434Z,48.70
2017-04-11T02:08:07.548Z,48.70
2017-04-11T02:09:06.748Z,48.80
2017-04-11T02:10:05.876Z,48.80
2017-04-11T02:11:05.075Z,48.70
2017-04-11T02:12:04.197Z,48.90
2017-04-11T02:13:03.311Z,49.10
2017-04-11T02:14:02.496Z,49.20
2017-04-11T02:15:01.622Z,49.20
2017-04-11T02:16:00.763Z,49.20
2017-04-11T02:17:00.628Z,49.00
2017-04-11T02:17:59.752Z,49.00
2017-04-11T02:18:58.855Z,49.00
2017-04-11T02:19:57.959Z,49.00
2017-04-11T02:20:57.069Z,48.90
2017-04-11T02:21:56.184Z,49.20
2017-04-11T02:22:55.311Z,49.00
2017-04-11T02:23:54.419Z,49.00
2017-04-11T02:24:53.532Z,48.70
2017-04-11T02:25:52.644Z,48.70
2017-04-11T02:26:51.769Z,48.90
2017-04-11T02:27:50.904Z,48.70
2017-04-11T02:28:50.764Z,48.80
2017-04-11T02:29:49.876Z,48.90
2017-04-11T02:30:49.077Z,49.00
2017-04-11T02:31:48.172Z,49.20
2017-04-11T02:32:48.036Z,49.10
2017-04-11T02:33:47.144Z,49.10
2017-04-11T02:34:46.257Z,49.20
2017-04-11T02:35:45.376Z,49.50
2017-04-11T02:36:44.479Z,49.80
2017-04-11T02:37:43.850Z,49.90
2017-04-11T02:38:42.956Z,50.00
2017-04-11T02:39:42.056Z,50.00
2017-04-11T02:40:41.169Z,49.90
2017-04-11T02:41:41.027Z,49.70
2017-04-11T02:42:40.155Z,49.90
2017-04-11T02:43:40.020Z,50.00
2017-04-11T02:44:39.129Z,50.00
2017-04-11T02:45:38.241Z,50.10
2017-04-11T02:46:37.352Z,50.00
2017-04-11T02:47:36.499Z,49.80
2017-04-11T02:48:36.361Z,49.80
2017-04-11T02:49:35.445Z,50.00
2017-04-11T02:50:34.638Z,50.00
2017-04-11T02:51:33.732Z,49.70
2017-04-11T02:52:32.820Z,49.80
2017-04-11T02:53:31.932Z,50.00
2017-04-11T02:54:31.768Z,50.00
2017-04-11T02:55:30.852Z,50.10
2017-04-11T02:56:29.946Z,50.10
2017-04-11T02:57:29.031Z,50.30
2017-04-11T02:58:28.128Z,50.30
2017-04-11T02:59:27.216Z,50.30
2017-04-11T03:00:26.308Z,50.30
2017-04-11T03:01:25.384Z,50.60
2017-04-11T03:02:24.580Z,50.50
2017-04-11T03:03:23.702Z,50.40
2017-04-11T03:04:23.532Z,50.30
2017-04-11T03:05:23.347Z,50.40
2017-04-11T03:06:22.432Z,50.60
2017-04-11T03:07:21.515Z,50.40
2017-04-11T03:08:20.611Z,50.50
2017-04-11T03:09:19.697Z,50.60
2017-04-11T03:10:18.780Z,51.40
2017-04-11T03:11:17.856Z,51.50
2017-04-11T03:12:16.929Z,51.50
2017-04-11T03:13:16.108Z,51.50
2017-04-11T03:14:15.186Z,51.60
2017-04-11T03:15:14.264Z,51.50
2017-04-11T03:16:14.137Z,51.60
2017-04-11T03:17:13.212Z,51.70
2017-04-11T03:18:12.296Z,51.60
2017-04-11T03:19:11.396Z,51.80
2017-04-11T03:20:10.468Z,51.70
2017-04-11T03:21:09.548Z,51.90
2017-04-11T03:22:08.638Z,51.90
2017-04-11T03:23:07.720Z,52.00
2017-04-11T03:24:06.824Z,52.00
2017-04-11T03:25:05.916Z,52.10
2017-04-11T03:26:04.991Z,52.00
2017-04-11T03:27:04.072Z,52.00
2017-04-11T03:28:03.145Z,51.90
2017-04-11T03:29:02.509Z,52.00
2017-04-11T03:30:01.597Z,52.00
2017-04-11T03:31:00.676Z,52.30
2017-04-11T03:31:59.765Z,52.20
2017-04-11T03:32:58.845Z,52.30
2017-04-11T03:33:57.936Z,52.30
2017-04-11T03:34:57.029Z,52.40
2017-04-11T03:35:56.235Z,52.60
2017-04-11T03:36:55.310Z,52.60
2017-04-11T03:37:54.390Z,52.40
2017-04-11T03:38:53.464Z,52.40
2017-04-11T03:39:52.569Z,52.30
2017-04-11T03:40:51.645Z,52.60
2017-04-11T03:41:50.716Z,52.60
2017-04-11T03:42:49.805Z,52.60
2017-04-11T03:43:48.876Z,52.70
2017-04-11T03:44:48.244Z,52.70
2017-04-11T03:45:48.060Z,52.80
2017-04-11T03:46:47.136Z,52.90
2017-04-11T03:47:46.216Z,53.00
2017-04-11T03:48:45.344Z,53.10
2017-04-11T03:49:44.467Z,53.00
2017-04-11T03:50:43.570Z,52.80
2017-04-11T03:51:43.407Z,52.70
2017-04-11T03:52:42.512Z,52.80
2017-04-11T03:53:41.628Z,53.00
2017-04-11T03:54:40.753Z,53.00
2017-04-11T03:55:39.865Z,53.10
2017-04-11T03:56:38.984Z,53.10
2017-04-11T03:58:38.240Z,53.10
2017-04-11T03:59:37.382Z,53.20
2017-04-11T04:00:37.251Z,53.10
2017-04-11T04:01:36.389Z,53.30
2017-04-11T04:02:35.493Z,53.30
2017-04-11T04:03:34.596Z,53.40
2017-04-11T04:04:33.936Z,53.50
2017-04-11T04:05:33.779Z,53.70
2017-04-11T04:06:32.882Z,53.70
2017-04-11T04:07:31.976Z,54.30
2017-04-11T04:08:31.081Z,53.70
2017-04-11T04:09:30.248Z,53.80
2017-04-11T04:10:29.384Z,53.90
2017-04-11T04:11:28.856Z,53.80
2017-04-11T04:12:27.968Z,53.80
2017-04-11T04:13:27.067Z,53.80
2017-04-11T04:14:26.159Z,53.90
2017-04-11T04:15:25.280Z,54.00
2017-04-11T04:16:24.388Z,54.00
2017-04-11T04:17:24.235Z,54.00
2017-04-11T04:18:23.344Z,54.00
2017-04-11T04:19:22.463Z,54.10
2017-04-11T04:20:21.580Z,54.10
2017-04-11T04:21:20.693Z,54.20
2017-04-11T04:22:19.868Z,54.10
2017-04-11T04:23:19.022Z,54.20
2017-04-11T04:24:18.152Z,54.20
2017-04-11T04:25:17.268Z,54.30
2017-04-11T04:26:16.369Z,55.00
2017-04-11T04:27:16.212Z,54.50
2017-04-11T04:28:15.312Z,54.60
2017-04-11T04:29:14.411Z,54.70
2017-04-11T04:30:13.520Z,54.70
2017-04-11T04:31:13.385Z,55.30
2017-04-11T04:32:12.488Z,54.70
2017-04-11T04:33:11.589Z,54.80
2017-04-11T04:34:10.692Z,54.80
2017-04-11T04:35:10.068Z,54.90
2017-04-11T04:36:09.182Z,55.00
2017-04-11T04:37:08.313Z,55.00
2017-04-11T04:38:07.411Z,55.00
2017-04-11T04:39:06.522Z,55.00
2017-04-11T04:40:06.442Z,55.10
2017-04-11T04:41:05.852Z,55.00
2017-04-11T04:42:04.964Z,55.10
2017-04-11T04:43:04.068Z,55.10
2017-04-11T04:44:03.188Z,55.20
2017-04-11T04:45:02.305Z,55.20
2017-04-11T04:46:01.510Z,55.20
2017-04-11T04:47:00.624Z,55.10
2017-04-11T04:47:59.724Z,55.00
2017-04-11T04:48:59.559Z,55.00
2017-04-11T04:49:58.628Z,55.00
2017-04-11T04:50:57.707Z,55.20
2017-04-11T04:51:56.855Z,55.10
2017-04-11T04:53:55.319Z,55.10
2017-04-11T04:54:54.408Z,55.10
2017-04-11T04:55:53.481Z,55.10
2017-04-11T04:56:52.576Z,55.10
2017-04-11T04:57:51.652Z,55.20
2017-04-11T04:58:50.727Z,55.20
2017-04-11T04:59:49.804Z,55.10
2017-04-11T05:00:48.940Z,55.10
2017-04-11T05:01:48.792Z,55.00
2017-04-11T05:02:47.873Z,55.00
2017-04-11T05:03:46.947Z,55.00
2017-04-11T05:04:46.032Z,55.20
2017-04-11T05:05:45.108Z,55.10
2017-04-11T05:06:44.185Z,55.10
2017-04-11T05:07:43.276Z,55.00
2017-04-11T05:08:42.355Z,55.00
2017-04-11T05:09:41.436Z,55.00
2017-04-11T05:10:41.260Z,55.20
2017-04-11T05:11:40.337Z,55.00
2017-04-11T05:12:39.427Z,55.20
2017-04-11T05:13:38.492Z,55.00
2017-04-11T05:14:38.308Z,55.10
2017-04-11T05:15:37.381Z,55.50
2017-04-11T05:16:36.469Z,54.90
2017-04-11T05:17:35.571Z,54.90
2017-04-11T05:18:34.657Z,55.10
2017-04-11T05:19:33.744Z,55.00
2017-04-11T05:20:32.831Z,55.00
2017-04-11T05:21:31.932Z,55.00
2017-04-11T05:22:31.037Z,54.70
2017-04-11T05:23:30.448Z,54.60
2017-04-11T05:24:29.533Z,54.60
2017-04-11T05:25:30.040Z,54.70
2017-04-11T05:26:29.115Z,54.50
2017-04-11T05:27:28.193Z,54.50
2017-04-11T05:28:27.309Z,54.60
2017-04-11T05:29:26.389Z,54.40
2017-04-11T05:30:25.471Z,54.50
2017-04-11T05:31:24.553Z,54.40
2017-04-11T05:32:23.645Z,54.40
2017-04-11T05:33:22.753Z,54.50
2017-04-11T05:34:22.573Z,54.30
2017-04-11T05:35:21.660Z,54.10
2017-04-11T05:36:20.744Z,54.30
2017-04-11T05:37:19.858Z,54.40
2017-04-11T05:38:18.928Z,54.20
2017-04-11T05:39:18.024Z,54.30
2017-04-11T05:40:17.096Z,54.30
2017-04-11T05:41:16.180Z,54.10
2017-04-11T05:42:15.268Z,53.90
2017-04-11T05:43:14.368Z,54.10
2017-04-11T05:44:13.464Z,53.90
2017-04-11T05:45:12.563Z,53.80
2017-04-11T05:46:11.676Z,53.80
2017-04-11T05:47:11.494Z,53.80
2017-04-11T05:48:10.601Z,53.70
2017-04-11T05:49:09.739Z,53.80
2017-04-11T05:50:09.598Z,53.70
2017-04-11T05:51:08.693Z,53.50
2017-04-11T05:52:07.805Z,53.50
2017-04-11T05:53:06.908Z,53.60
2017-04-11T05:54:06.764Z,53.60
2017-04-11T05:55:05.857Z,53.50
2017-04-11T05:56:04.955Z,53.70
2017-04-11T05:57:04.041Z,53.50
2017-04-11T05:58:03.131Z,53.40
2017-04-11T05:59:02.261Z,53.40
2017-04-11T06:00:01.384Z,53.30
2017-04-11T06:01:00.627Z,53.30
2017-04-11T06:01:59.728Z,53.40
2017-04-11T06:02:58.819Z,53.50
2017-04-11T06:03:57.928Z,53.20
2017-04-11T06:04:57.024Z,53.00
2017-04-11T06:05:56.108Z,53.00
2017-04-11T06:07:54.616Z,52.90
2017-04-11T06:08:54.527Z,52.70
2017-04-11T06:09:53.629Z,53.00
2017-04-11T06:10:52.720Z,52.70
2017-04-11T06:11:51.823Z,53.00
2017-04-11T06:12:50.923Z,52.80
2017-04-11T06:13:50.033Z,52.90
2017-04-11T06:14:49.148Z,52.90
2017-04-11T06:15:48.243Z,52.80
2017-04-11T06:16:47.341Z,52.40
2017-04-11T06:17:46.433Z,52.50
2017-04-11T06:18:45.524Z,52.70
2017-04-11T06:19:44.623Z,52.70
2017-04-11T06:20:43.748Z,52.60
2017-04-11T06:21:42.834Z,52.10
2017-04-11T06:22:41.923Z,52.10
2017-04-11T06:23:41.013Z,52.40
2017-04-11T06:24:40.146Z,51.70
2017-04-11T06:25:39.335Z,51.80
2017-04-11T06:26:38.568Z,52.40
2017-04-11T06:27:37.660Z,51.90
2017-04-11T06:28:36.757Z,52.00
2017-04-11T06:29:35.839Z,52.20
2017-04-11T06:30:34.975Z,52.60
2017-04-11T06:31:34.060Z,52.50
2017-04-11T06:32:33.436Z,52.40
2017-04-11T06:33:32.521Z,52.40
2017-04-11T06:34:31.613Z,52.90
2017-04-11T06:35:30.784Z,52.50
2017-04-11T06:36:29.987Z,52.00
2017-04-11T06:37:29.084Z,51.90
2017-04-11T06:38:28.172Z,51.90
2017-04-11T06:39:27.266Z,51.50
2017-04-11T06:40:26.380Z,51.40
2017-04-11T06:41:25.484Z,51.40
2017-04-11T06:42:24.572Z,51.30
2017-04-11T06:43:23.661Z,51.50
2017-04-11T06:44:22.775Z,51.60
2017-04-11T06:45:21.899Z,51.70
2017-04-11T06:46:20.979Z,51.50
2017-04-11T06:47:20.820Z,51.50
2017-04-11T06:48:19.960Z,51.30
2017-04-11T06:49:19.799Z,51.20
2017-04-11T06:50:18.912Z,51.00
2017-04-11T06:51:18.015Z,50.50
2017-04-11T06:52:17.104Z,50.80
2017-04-11T06:53:16.227Z,50.70
2017-04-11T06:54:15.320Z,50.30
2017-04-11T06:55:14.443Z,48.90
2017-04-11T06:56:13.532Z,49.30
2017-04-11T06:57:12.624Z,49.60
2017-04-11T06:58:11.733Z,49.70
2017-04-11T06:59:11.578Z,49.60
2017-04-11T07:00:11.329Z,49.80
2017-04-11T07:01:10.460Z,49.40
2017-04-11T07:02:09.547Z,49.60
2017-04-11T07:03:08.660Z,49.70
2017-04-11T07:04:07.739Z,50.10
2017-04-11T07:05:06.934Z,50.30
2017-04-11T07:06:06.076Z,50.70
2017-04-11T07:07:05.160Z,50.20
2017-04-11T07:08:04.249Z,50.00
2017-04-11T07:09:03.364Z,50.10
2017-04-11T07:10:02.460Z,49.40
2017-04-11T07:11:01.636Z,48.70
2017-04-11T07:12:00.729Z,48.50
2017-04-11T07:12:59.834Z,48.90
2017-04-11T07:13:59.008Z,48.50
2017-04-11T07:14:58.095Z,48.70
2017-04-11T07:15:57.460Z,48.70
2017-04-11T07:16:56.563Z,48.50
2017-04-11T07:17:55.765Z,48.60
2017-04-11T07:18:54.855Z,48.70
2017-04-11T07:19:53.956Z,49.00
2017-04-11T07:20:53.085Z,48.40
2017-04-11T07:21:52.192Z,47.20
2017-04-11T07:22:51.284Z,46.90
2017-04-11T07:23:50.377Z,46.90
2017-04-11T07:24:49.554Z,48.10
2017-04-11T07:25:48.688Z,48.00
2017-04-11T07:26:48.556Z,48.00
2017-04-11T07:27:47.645Z,48.00
2017-04-11T07:28:46.740Z,47.00
2017-04-11T07:29:45.827Z,46.60
2017-04-11T07:30:44.932Z,46.90
2017-04-11T07:31:44.021Z,47.80
2017-04-11T07:32:43.155Z,47.20
2017-04-11T07:33:42.248Z,47.40
2017-04-11T07:34:41.348Z,47.40
2017-04-11T07:35:40.447Z,45.80
2017-04-11T07:36:39.535Z,45.60
2017-04-11T07:37:39.387Z,45.80
2017-04-11T07:38:38.481Z,46.20
2017-04-11T07:39:37.575Z,46.20
2017-04-11T07:40:36.669Z,46.30
2017-04-11T07:41:35.768Z,46.20
2017-04-11T07:42:34.881Z,46.60
2017-04-11T07:43:33.975Z,46.80
2017-04-11T07:44:33.076Z,47.50
2017-04-11T07:45:32.172Z,47.60
2017-04-11T07:46:31.281Z,47.70
2017-04-11T07:47:30.416Z,46.80
2017-04-11T07:48:29.574Z,47.20
2017-04-11T07:49:29.440Z,47.00
2017-04-11T07:50:28.564Z,45.60
2017-04-11T07:51:28.419Z,45.80
2017-04-11T07:52:27.601Z,46.40
2017-04-11T07:53:26.716Z,46.50
2017-04-11T07:54:25.845Z,46.60
2017-04-11T07:55:24.973Z,45.90
2017-04-11T07:56:24.102Z,46.10
2017-04-11T07:57:23.951Z,45.70
2017-04-11T07:58:23.084Z,45.40
2017-04-11T07:59:22.199Z,46.10
2017-04-11T08:00:21.360Z,45.60
2017-04-11T08:01:21.233Z,45.40
2017-04-11T08:02:20.356Z,45.40
2017-04-11T08:03:20.233Z,45.00
2017-04-11T08:04:19.356Z,45.70
2017-04-11T08:05:18.476Z,45.30
2017-04-11T08:06:17.596Z,45.60
2017-04-11T08:07:16.712Z,45.70
2017-04-11T08:08:15.847Z,45.10
2017-04-11T08:09:14.972Z,45.70
2017-04-11T08:10:14.092Z,45.70
2017-04-11T08:11:13.243Z,44.80
2017-04-11T08:12:13.112Z,45.40
2017-04-11T08:13:12.252Z,45.90
2017-04-11T08:14:11.400Z,46.90
2017-04-11T08:15:11.263Z,46.30
2017-04-11T08:16:10.391Z,46.20
2017-04-11T08:17:09.503Z,45.90
2017-04-11T08:18:08.637Z,45.60
2017-04-11T08:19:07.763Z,45.00
2017-04-11T08:20:07.623Z,45.20
2017-04-11T08:21:06.743Z,45.40
2017-04-11T08:22:06.638Z,46.50
2017-04-11T08:23:05.786Z,45.20
2017-04-11T08:24:04.904Z,44.90
2017-04-11T08:25:04.052Z,45.00
2017-04-11T08:26:03.169Z,45.40
2017-04-11T08:27:02.292Z,45.40
2017-04-11T08:28:02.162Z,46.00
2017-04-11T08:29:01.300Z,45.60
2017-04-11T08:30:00.412Z,44.60
2017-04-11T08:30:59.537Z,45.10
2017-04-11T08:31:59.404Z,44.50
2017-04-11T08:32:58.533Z,43.20
2017-04-11T08:33:58.424Z,43.10
2017-04-11T08:34:57.567Z,43.00
2017-04-11T08:35:56.679Z,43.60
2017-04-11T08:36:55.795Z,44.80
2017-04-11T08:37:55.667Z,44.20
2017-04-11T08:38:54.886Z,43.50
2017-04-11T08:39:53.956Z,43.60
2017-04-11T08:40:53.079Z,43.10
2017-04-11T08:41:52.212Z,42.30
2017-04-11T08:42:51.340Z,42.90
2017-04-11T08:43:51.217Z,43.30
2017-04-11T08:44:50.374Z,43.90
2017-04-11T08:45:49.496Z,44.40
2017-04-11T08:46:48.620Z,44.30
2017-04-11T08:47:47.749Z,43.60
2017-04-11T08:48:46.883Z,42.90
2017-04-11T08:49:46.033Z,43.60
2017-04-11T08:50:45.152Z,44.00
2017-04-11T08:51:44.269Z,43.80
2017-04-11T08:52:43.440Z,43.30
2017-04-11T08:53:42.576Z,42.30
2017-04-11T08:54:41.713Z,42.30
2017-04-11T08:55:40.836Z,42.30
2017-04-11T08:56:39.956Z,42.20
2017-04-11T08:57:39.821Z,42.60
2017-04-11T08:58:39.521Z,43.40
2017-04-11T08:59:38.669Z,44.30
2017-04-11T09:00:37.809Z,43.60
2017-04-11T09:01:36.940Z,42.30
2017-04-11T09:02:36.069Z,42.60
2017-04-11T09:03:35.185Z,43.40
2017-04-11T09:04:35.077Z,43.70
2017-04-11T09:05:34.200Z,42.70
2017-04-11T09:06:33.330Z,42.40
2017-04-11T09:07:32.450Z,42.20
2017-04-11T09:08:31.576Z,42.10
2017-04-11T09:09:30.707Z,42.50
2017-04-11T09:10:29.827Z,40.20
2017-04-11T09:11:29.525Z,40.00
2017-04-11T09:12:28.660Z,40.30
2017-04-11T09:13:27.799Z,40.20
2017-04-11T09:14:26.988Z,41.40
2017-04-11T09:15:26.121Z,42.10
2017-04-11T09:16:25.309Z,42.10
2017-04-11T09:17:24.456Z,42.30
2017-04-11T09:18:23.585Z,41.60
2017-04-11T09:19:23.048Z,40.60
2017-04-11T09:20:22.164Z,40.50
2017-04-11T09:21:21.280Z,40.50
2017-04-11T09:22:21.140Z,40.00
2017-04-11T09:23:20.260Z,40.10
2017-04-11T09:24:19.371Z,40.30
2017-04-11T09:25:18.512Z,41.50
2017-04-11T09:26:17.627Z,41.10
2017-04-11T09:27:24.016Z,41.40
2017-04-11T09:28:23.184Z,40.70
2017-04-11T09:29:22.305Z,40.60
2017-04-11T09:30:21.473Z,39.90
2017-04-11T09:31:20.641Z,40.50
2017-04-11T09:32:19.801Z,39.90
2017-04-11T09:33:18.933Z,39.70
2017-04-11T09:34:18.057Z,40.60
2017-04-11T09:35:17.192Z,41.90
2017-04-11T09:36:16.316Z,42.20
2017-04-11T09:37:15.491Z,42.40
2017-04-11T09:38:14.649Z,41.40
2017-04-11T09:39:13.797Z,40.30
2017-04-11T09:40:13.016Z,39.70
2017-04-11T09:41:12.980Z,39.50
2017-04-11T09:42:12.100Z,38.40
2017-04-11T09:43:11.969Z,38.80
2017-04-11T09:44:11.102Z,38.30
2017-04-11T09:45:10.237Z,38.70
2017-04-11T09:46:09.372Z,37.50
2017-04-11T09:47:08.503Z,36.70
2017-04-11T09:48:07.681Z,35.90
2017-04-11T09:49:06.819Z,35.50
2017-04-11T09:50:06.680Z,35.10
2017-04-11T09:51:08.916Z,34.70
2017-04-11T09:52:08.084Z,33.50
2017-04-11T09:53:07.325Z,33.40
2017-04-11T09:54:06.461Z,32.60
2017-04-11T09:55:05.588Z,31.50
2017-04-11T09:56:04.775Z,30.50
2017-04-11T09:57:03.892Z,29.70
2017-04-11T09:58:03.008Z,29.70
2017-04-11T09:59:03.316Z,29.60
2017-04-11T10:00:02.566Z,29.50
2017-04-11T10:01:01.726Z,29.10
2017-04-11T10:02:00.878Z,29.10
2017-04-11T10:03:00.001Z,29.30
2017-04-11T10:03:59.119Z,29.10
2017-04-11T10:04:58.287Z,29.30
2017-04-11T10:05:57.422Z,29.70
2017-04-11T10:06:56.564Z,29.70
2017-04-11T10:07:55.692Z,29.50
2017-04-11T10:08:54.835Z,29.10
2017-04-11T10:09:54.024Z,29.00
2017-04-11T10:10:53.143Z,29.50
2017-04-11T10:11:53.020Z,28.40
2017-04-11T10:12:52.140Z,27.50
2017-04-11T10:13:51.280Z,27.50
2017-04-11T10:14:50.400Z,27.80
2017-04-11T10:15:50.265Z,28.70
2017-04-11T10:16:49.404Z,29.30
2017-04-11T10:17:48.532Z,30.00
2017-04-11T10:18:47.940Z,30.70
2017-04-11T10:19:47.068Z,30.90
2017-04-11T10:20:46.192Z,31.10
2017-04-11T10:21:45.562Z,31.30
2017-04-11T10:22:44.681Z,31.90
2017-04-11T10:23:43.808Z,30.50
2017-04-11T10:24:43.780Z,30.90
2017-04-11T10:25:42.980Z,31.40
2017-04-11T10:26:42.155Z,31.80
2017-04-11T10:27:41.296Z,31.60
2017-04-11T10:28:40.431Z,31.30
2017-04-11T10:29:39.558Z,30.70
2017-04-11T10:30:38.684Z,30.20
2017-04-11T10:31:37.799Z,30.70
2017-04-11T10:32:36.933Z,32.00
2017-04-11T10:33:36.077Z,31.50
2017-04-11T10:34:35.245Z,31.50
2017-04-11T10:35:34.360Z,31.30
2017-04-11T10:36:33.477Z,31.20
2017-04-11T10:37:32.625Z,31.30
2017-04-11T10:38:31.763Z,31.10
2017-04-11T10:39:30.888Z,30.10
2017-04-11T10:40:30.008Z,29.40
2017-04-11T10:41:29.189Z,29.80
2017-04-11T10:42:29.080Z,28.90
2017-04-11T10:43:28.991Z,29.40
2017-04-11T10:44:28.860Z,28.70
2017-04-11T10:45:27.992Z,29.30
2017-04-11T10:46:27.112Z,29.70
2017-04-11T10:47:26.472Z,29.50
2017-04-11T10:48:25.599Z,29.90
2017-04-11T10:49:24.741Z,30.00
2017-04-11T10:50:23.832Z,30.40
2017-04-11T10:51:23.009Z,30.20
2017-04-11T10:52:22.847Z,31.20
2017-04-11T10:53:22.016Z,32.50
2017-04-11T10:54:21.131Z,32.50
2017-04-11T10:55:20.256Z,31.70
2017-04-11T10:56:20.104Z,31.40
2017-04-11T10:57:19.195Z,31.50
2017-04-11T10:58:18.609Z,31.70
2017-04-11T10:59:17.709Z,31.30
2017-04-11T11:00:16.815Z,31.00
2017-04-11T11:01:16.656Z,31.50
2017-04-11T11:02:15.752Z,30.10
2017-04-11T11:03:14.866Z,28.80
2017-04-11T11:04:13.963Z,29.00
2017-04-11T11:05:13.062Z,28.30
2017-04-11T11:06:12.903Z,28.50
2017-04-11T11:07:11.995Z,28.30
2017-04-11T11:08:11.092Z,29.00
2017-04-11T11:09:10.225Z,29.20
2017-04-11T11:10:10.064Z,29.80
2017-04-11T11:11:09.184Z,30.00
2017-04-11T11:12:08.275Z,29.40
2017-04-11T11:13:07.367Z,29.80
2017-04-11T11:14:06.511Z,30.40
2017-04-11T11:15:05.614Z,30.10
2017-04-11T11:16:04.724Z,29.90
2017-04-11T11:17:03.927Z,30.50
2017-04-11T11:18:03.767Z,30.70
2017-04-11T11:19:02.884Z,30.40
2017-04-11T11:20:01.965Z,30.00
2017-04-11T11:21:01.070Z,28.60
2017-04-11T11:22:00.168Z,28.90
2017-04-11T11:23:00.021Z,29.40
2017-04-11T11:23:59.136Z,28.90
2017-04-11T11:24:58.348Z,29.40
2017-04-11T11:25:58.244Z,30.00
2017-04-11T11:26:58.089Z,30.30
2017-04-11T11:27:57.348Z,31.10
2017-04-11T11:28:56.492Z,31.50
2017-04-11T11:29:55.593Z,30.50
2017-04-11T11:30:54.692Z,29.50
2017-04-11T11:31:54.531Z,29.90
2017-04-11T11:32:53.635Z,30.60
2017-04-11T11:33:52.736Z,30.60
2017-04-11T11:34:51.860Z,31.60
2017-04-11T11:35:51.703Z,31.00
2017-04-11T11:36:50.791Z,31.90
2017-04-11T11:37:49.881Z,32.30
2017-04-11T11:38:48.981Z,32.60
2017-04-11T11:39:48.098Z,32.40
2017-04-11T11:40:47.943Z,32.40
2017-04-11T11:41:47.136Z,32.00
2017-04-11T11:42:46.232Z,33.30
2017-04-11T11:43:45.329Z,33.50
2017-04-11T11:44:44.444Z,33.40
2017-04-11T11:45:43.554Z,33.60
2017-04-11T11:46:42.720Z,33.90
2017-04-11T11:47:42.586Z,34.10
2017-04-11T11:48:41.704Z,34.30
2017-04-11T11:49:40.802Z,34.60
2017-04-11T11:50:39.904Z,35.00
2017-04-11T11:51:39.068Z,34.00
2017-04-11T11:52:38.352Z,33.70
2017-04-11T11:53:38.185Z,33.10
2017-04-11T11:54:37.280Z,32.50
2017-04-11T11:55:36.393Z,32.00
2017-04-11T11:56:35.492Z,32.20
2017-04-11T11:58:34.016Z,31.00
2017-04-11T11:59:33.164Z,30.40
2017-04-11T12:00:32.291Z,30.50
2017-04-11T12:01:31.387Z,31.30
2017-04-11T12:02:30.484Z,31.70
2017-04-11T12:03:29.720Z,31.60
2017-04-11T12:04:28.825Z,32.50
2017-04-11T12:05:27.928Z,32.20
2017-04-11T12:06:27.051Z,32.10
2017-04-11T12:07:26.144Z,32.60
2017-04-11T12:08:25.248Z,33.60
2017-04-11T12:09:24.348Z,34.00
2017-04-11T12:10:23.443Z,33.50
2017-04-11T12:11:22.553Z,33.00
2017-04-11T12:12:21.640Z,33.30
2017-04-11T12:13:20.846Z,33.20
2017-04-11T12:14:19.945Z,33.10
2017-04-11T12:15:19.045Z,33.70
2017-04-11T12:16:18.891Z,33.80
2017-04-11T12:17:18.077Z,33.80
2017-04-11T12:18:17.179Z,33.30
2017-04-11T12:19:16.277Z,32.10
2017-04-11T12:20:15.368Z,33.20
2017-04-11T12:21:14.500Z,33.20
2017-04-11T12:22:13.616Z,33.80
2017-04-11T12:23:12.708Z,34.60
2017-04-11T12:24:11.804Z,35.00
2017-04-11T12:25:10.905Z,37.10
2017-04-11T12:27:09.448Z,36.10
2017-04-11T12:28:08.532Z,36.50
2017-04-11T12:29:07.623Z,36.20
2017-04-11T12:30:06.723Z,35.90
2017-04-11T12:31:05.840Z,36.00
2017-04-11T12:32:05.672Z,35.00
2017-04-11T12:33:04.771Z,35.40
2017-04-11T12:34:03.872Z,35.70
2017-04-11T12:35:02.972Z,35.40
2017-04-11T12:36:02.094Z,34.60
2017-04-11T12:37:01.936Z,33.90
2017-04-11T12:38:01.033Z,34.10
2017-04-11T12:39:00.141Z,33.90
2017-04-11T12:39:59.265Z,33.90
2017-04-11T12:40:58.361Z,32.80
2017-04-11T12:41:57.588Z,33.00
2017-04-11T12:42:56.680Z,34.20
2017-04-11T12:43:55.781Z,33.10
2017-04-11T12:44:54.883Z,32.50
2017-04-11T12:45:54.068Z,32.50
2017-04-11T12:46:53.204Z,32.90
2017-04-11T12:47:52.309Z,33.30
2017-04-11T12:48:51.428Z,34.30